sensor_id;sensor_type;location;lat;lon;timestamp;pressure;altitude;pressure_sealevel;temperature;humidity
72486;BME280;60509;47.308;-122.428;2022-08-16T00:00:41;100572.61;;;33.74;10.57
72486;BME280;60509;47.308;-122.428;2022-08-16T00:03:03;100573.07;;;33.97;10.44
72486;BME280;60509;47.308;-122.428;2022-08-16T00:05:29;100569.29;;;30.93;10.84
72486;BME280;60509;47.308;-122.428;2022-08-16T00:07:53;100568.73;;;33.67;10.05
72486;BME280;60509;47.308;-122.428;2022-08-16T00:10:19;100567.49;;;31.57;10.60
72486;BME280;60509;47.308;-122.428;2022-08-16T00:12:44;100567.67;;;32.86;10.18
72486;BME280;60509;47.308;-122.428;2022-08-16T00:15:14;100574.48;;;28.32;11.81
72486;BME280;60509;47.308;-122.428;2022-08-16T00:17:34;100573.41;;;32.34;10.50
72486;BME280;60509;47.308;-122.428;2022-08-16T00:19:59;100576.02;;;34.91;9.52
72486;BME280;60509;47.308;-122.428;2022-08-16T00:22:25;100571.24;;;32.32;10.41
72486;BME280;60509;47.308;-122.428;2022-08-16T00:24:50;100572.37;;;33.58;9.97
72486;BME280;60509;47.308;-122.428;2022-08-16T00:27:16;100571.07;;;34.92;9.60
72486;BME280;60509;47.308;-122.428;2022-08-16T00:29:42;100571.59;;;30.91;10.60
72486;BME280;60509;47.308;-122.428;2022-08-16T00:32:08;100568.57;;;34.25;9.63
72486;BME280;60509;47.308;-122.428;2022-08-16T00:34:33;100566.10;;;34.65;9.55
72486;BME280;60509;47.308;-122.428;2022-08-16T00:36:58;100561.59;;;34.78;9.04
72486;BME280;60509;47.308;-122.428;2022-08-16T00:39:24;100562.23;;;33.36;9.74
72486;BME280;60509;47.308;-122.428;2022-08-16T00:41:50;100558.00;;;34.89;8.88
72486;BME280;60509;47.308;-122.428;2022-08-16T00:44:19;100557.42;;;35.11;8.91
72486;BME280;60509;47.308;-122.428;2022-08-16T00:46:49;100554.66;;;35.26;9.05
72486;BME280;60509;47.308;-122.428;2022-08-16T00:49:11;100555.66;;;33.80;9.06
72486;BME280;60509;47.308;-122.428;2022-08-16T00:51:34;100552.91;;;35.96;8.36
72486;BME280;60509;47.308;-122.428;2022-08-16T00:54:00;100549.13;;;36.84;8.24
72486;BME280;60509;47.308;-122.428;2022-08-16T00:56:29;100548.30;;;35.68;8.20
72486;BME280;60509;47.308;-122.428;2022-08-16T00:58:52;100549.99;;;32.88;9.12
72486;BME280;60509;47.308;-122.428;2022-08-16T01:01:19;100543.90;;;36.74;8.26
72486;BME280;60509;47.308;-122.428;2022-08-16T01:03:46;100539.64;;;36.29;8.51
72486;BME280;60509;47.308;-122.428;2022-08-16T01:06:11;100537.62;;;35.04;8.42
72486;BME280;60509;47.308;-122.428;2022-08-16T01:08:36;100534.23;;;37.14;7.53
72486;BME280;60509;47.308;-122.428;2022-08-16T01:11:03;100533.68;;;38.55;7.37
72486;BME280;60509;47.308;-122.428;2022-08-16T01:13:30;100532.69;;;37.67;7.70
72486;BME280;60509;47.308;-122.428;2022-08-16T01:15:57;100534.02;;;36.38;8.24
72486;BME280;60509;47.308;-122.428;2022-08-16T01:18:22;100533.07;;;37.20;8.33
72486;BME280;60509;47.308;-122.428;2022-08-16T01:20:52;100537.81;;;35.31;8.77
72486;BME280;60509;47.308;-122.428;2022-08-16T01:23:15;100532.55;;;35.32;8.50
72486;BME280;60509;47.308;-122.428;2022-08-16T01:25:39;100533.21;;;36.68;8.03
72486;BME280;60509;47.308;-122.428;2022-08-16T01:28:05;100531.85;;;37.51;7.99
72486;BME280;60509;47.308;-122.428;2022-08-16T01:30:31;100534.71;;;34.93;8.80
72486;BME280;60509;47.308;-122.428;2022-08-16T01:32:57;100528.56;;;35.77;8.36
72486;BME280;60509;47.308;-122.428;2022-08-16T01:35:25;100527.82;;;35.05;8.59
72486;BME280;60509;47.308;-122.428;2022-08-16T01:37:48;100525.89;;;38.25;7.80
72486;BME280;60509;47.308;-122.428;2022-08-16T01:40:14;100533.53;;;31.55;10.19
72486;BME280;60509;47.308;-122.428;2022-08-16T01:42:37;100527.73;;;38.45;7.48
72486;BME280;60509;47.308;-122.428;2022-08-16T01:45:03;100528.12;;;37.99;7.64
72486;BME280;60509;47.308;-122.428;2022-08-16T01:47:27;100528.51;;;37.27;7.67
72486;BME280;60509;47.308;-122.428;2022-08-16T01:49:53;100527.55;;;37.87;7.71
72486;BME280;60509;47.308;-122.428;2022-08-16T01:52:19;100528.58;;;38.14;7.39
72486;BME280;60509;47.308;-122.428;2022-08-16T01:54:45;100526.44;;;37.84;7.86
72486;BME280;60509;47.308;-122.428;2022-08-16T01:57:11;100527.57;;;36.84;8.35
72486;BME280;60509;47.308;-122.428;2022-08-16T01:59:37;100526.91;;;38.95;7.37
72486;BME280;60509;47.308;-122.428;2022-08-16T02:02:01;100527.16;;;35.79;8.04
72486;BME280;60509;47.308;-122.428;2022-08-16T02:04:28;100524.33;;;37.82;7.97
72486;BME280;60509;47.308;-122.428;2022-08-16T02:06:52;100523.96;;;36.74;8.23
72486;BME280;60509;47.308;-122.428;2022-08-16T02:09:17;100523.26;;;38.43;7.61
72486;BME280;60509;47.308;-122.428;2022-08-16T02:11:44;100525.75;;;37.66;8.11
72486;BME280;60509;47.308;-122.428;2022-08-16T02:14:06;100526.55;;;40.59;7.02
72486;BME280;60509;47.308;-122.428;2022-08-16T02:16:31;100524.92;;;39.96;7.08
72486;BME280;60509;47.308;-122.428;2022-08-16T02:18:56;100527.56;;;39.33;7.26
72486;BME280;60509;47.308;-122.428;2022-08-16T02:21:21;100523.79;;;38.35;7.72
72486;BME280;60509;47.308;-122.428;2022-08-16T02:23:46;100526.29;;;37.91;7.55
72486;BME280;60509;47.308;-122.428;2022-08-16T02:26:12;100529.85;;;36.97;7.95
72486;BME280;60509;47.308;-122.428;2022-08-16T02:28:36;100528.50;;;37.68;7.75
72486;BME280;60509;47.308;-122.428;2022-08-16T02:31:06;100534.17;;;35.38;8.46
72486;BME280;60509;47.308;-122.428;2022-08-16T02:33:27;100533.51;;;36.05;8.57
72486;BME280;60509;47.308;-122.428;2022-08-16T02:35:52;100537.67;;;36.61;8.67
72486;BME280;60509;47.308;-122.428;2022-08-16T02:38:17;100539.20;;;32.19;10.22
72486;BME280;60509;47.308;-122.428;2022-08-16T02:40:42;100541.73;;;35.60;9.29
72486;BME280;60509;47.308;-122.428;2022-08-16T02:43:07;100548.50;;;30.32;12.15
72486;BME280;60509;47.308;-122.428;2022-08-16T02:45:32;100552.25;;;29.50;12.88
72486;BME280;60509;47.308;-122.428;2022-08-16T02:47:58;100554.00;;;26.17;15.33
72486;BME280;60509;47.308;-122.428;2022-08-16T02:50:23;100557.37;;;27.03;15.61
72486;BME280;60509;47.308;-122.428;2022-08-16T02:52:48;100562.10;;;26.69;16.46
72486;BME280;60509;47.308;-122.428;2022-08-16T02:55:13;100561.66;;;27.17;16.26
72486;BME280;60509;47.308;-122.428;2022-08-16T02:57:39;100566.13;;;26.95;16.79
72486;BME280;60509;47.308;-122.428;2022-08-16T03:00:06;100572.93;;;24.11;18.80
72486;BME280;60509;47.308;-122.428;2022-08-16T03:02:29;100575.75;;;23.32;19.87
72486;BME280;60509;47.308;-122.428;2022-08-16T03:04:54;100575.64;;;23.21;20.53
72486;BME280;60509;47.308;-122.428;2022-08-16T03:07:20;100576.49;;;22.67;21.67
72486;BME280;60509;47.308;-122.428;2022-08-16T03:09:45;100576.37;;;22.47;22.16
72486;BME280;60509;47.308;-122.428;2022-08-16T03:12:11;100580.10;;;20.06;24.05
72486;BME280;60509;47.308;-122.428;2022-08-16T03:14:36;100579.17;;;20.11;24.09
72486;BME280;60509;47.308;-122.428;2022-08-16T03:17:02;100585.04;;;20.16;24.25
72486;BME280;60509;47.308;-122.428;2022-08-16T03:19:28;100590.30;;;19.60;24.52
72486;BME280;60509;47.308;-122.428;2022-08-16T03:21:52;100590.82;;;18.34;25.49
72486;BME280;60509;47.308;-122.428;2022-08-16T03:24:18;100591.52;;;19.37;25.60
72486;BME280;60509;47.308;-122.428;2022-08-16T03:26:43;100594.23;;;18.95;25.83
72486;BME280;60509;47.308;-122.428;2022-08-16T03:29:09;100601.16;;;17.94;26.97
72486;BME280;60509;47.308;-122.428;2022-08-16T03:31:34;100600.78;;;18.95;26.62
72486;BME280;60509;47.308;-122.428;2022-08-16T03:34:00;100600.02;;;18.18;27.14
72486;BME280;60509;47.308;-122.428;2022-08-16T03:36:26;100608.02;;;17.30;27.45
72486;BME280;60509;47.308;-122.428;2022-08-16T03:38:51;100612.16;;;17.31;28.01
72486;BME280;60509;47.308;-122.428;2022-08-16T03:41:17;100614.76;;;17.47;27.94
72486;BME280;60509;47.308;-122.428;2022-08-16T03:43:42;100618.99;;;16.57;28.59
72486;BME280;60509;47.308;-122.428;2022-08-16T03:46:08;100622.63;;;16.61;28.86
72486;BME280;60509;47.308;-122.428;2022-08-16T03:48:36;100626.69;;;16.65;28.51
72486;BME280;60509;47.308;-122.428;2022-08-16T03:51:00;100632.66;;;16.78;29.32
72486;BME280;60509;47.308;-122.428;2022-08-16T03:53:25;100629.18;;;16.51;29.26
72486;BME280;60509;47.308;-122.428;2022-08-16T03:55:50;100631.87;;;16.67;28.79
72486;BME280;60509;47.308;-122.428;2022-08-16T03:58:16;100638.04;;;16.59;29.07
72486;BME280;60509;47.308;-122.428;2022-08-16T04:00:41;100640.22;;;16.37;29.13
72486;BME280;60509;47.308;-122.428;2022-08-16T04:03:07;100643.11;;;16.17;30.04
72486;BME280;60509;47.308;-122.428;2022-08-16T04:05:34;100642.87;;;16.35;29.23
72486;BME280;60509;47.308;-122.428;2022-08-16T04:07:58;100646.49;;;15.72;29.98
72486;BME280;60509;47.308;-122.428;2022-08-16T04:10:24;100647.84;;;15.51;29.85
72486;BME280;60509;47.308;-122.428;2022-08-16T04:12:50;100652.63;;;15.00;30.98
72486;BME280;60509;47.308;-122.428;2022-08-16T04:15:16;100655.73;;;15.33;30.11
72486;BME280;60509;47.308;-122.428;2022-08-16T04:17:41;100658.46;;;15.46;31.08
72486;BME280;60509;47.308;-122.428;2022-08-16T04:20:08;100660.84;;;15.31;30.65
72486;BME280;60509;47.308;-122.428;2022-08-16T04:22:32;100660.98;;;15.41;30.56
72486;BME280;60509;47.308;-122.428;2022-08-16T04:24:58;100662.25;;;14.94;31.30
72486;BME280;60509;47.308;-122.428;2022-08-16T04:27:24;100659.43;;;13.62;32.05
72486;BME280;60509;47.308;-122.428;2022-08-16T04:29:49;100660.28;;;13.72;32.38
72486;BME280;60509;47.308;-122.428;2022-08-16T04:32:15;100663.90;;;12.84;33.57
72486;BME280;60509;47.308;-122.428;2022-08-16T04:34:41;100660.40;;;14.67;32.02
72486;BME280;60509;47.308;-122.428;2022-08-16T04:37:06;100659.63;;;14.15;32.19
72486;BME280;60509;47.308;-122.428;2022-08-16T04:39:34;100660.04;;;14.44;32.35
72486;BME280;60509;47.308;-122.428;2022-08-16T04:41:58;100661.02;;;14.10;32.36
72486;BME280;60509;47.308;-122.428;2022-08-16T04:44:24;100664.01;;;14.75;32.16
72486;BME280;60509;47.308;-122.428;2022-08-16T04:46:49;100666.93;;;14.26;32.45
72486;BME280;60509;47.308;-122.428;2022-08-16T04:49:15;100668.76;;;13.27;32.86
72486;BME280;60509;47.308;-122.428;2022-08-16T04:51:41;100672.03;;;14.25;32.25
72486;BME280;60509;47.308;-122.428;2022-08-16T04:54:07;100672.10;;;14.13;33.24
72486;BME280;60509;47.308;-122.428;2022-08-16T04:56:32;100675.11;;;12.34;35.33
72486;BME280;60509;47.308;-122.428;2022-08-16T04:58:58;100678.92;;;14.14;33.88
72486;BME280;60509;47.308;-122.428;2022-08-16T05:01:24;100678.51;;;12.87;35.75
72486;BME280;60509;47.308;-122.428;2022-08-16T05:03:49;100680.70;;;13.18;34.98
72486;BME280;60509;47.308;-122.428;2022-08-16T05:06:15;100681.66;;;13.43;34.43
72486;BME280;60509;47.308;-122.428;2022-08-16T05:08:41;100678.15;;;13.14;34.65
72486;BME280;60509;47.308;-122.428;2022-08-16T05:11:09;100679.52;;;13.03;34.61
72486;BME280;60509;47.308;-122.428;2022-08-16T05:13:34;100673.60;;;14.04;33.88
72486;BME280;60509;47.308;-122.428;2022-08-16T05:15:58;100675.06;;;14.00;34.39
72486;BME280;60509;47.308;-122.428;2022-08-16T05:18:24;100676.40;;;14.24;34.62
72486;BME280;60509;47.308;-122.428;2022-08-16T05:20:50;100677.76;;;12.41;36.05
72486;BME280;60509;47.308;-122.428;2022-08-16T05:23:15;100681.08;;;12.63;36.04
72486;BME280;60509;47.308;-122.428;2022-08-16T05:25:41;100687.25;;;12.26;35.99
72486;BME280;60509;47.308;-122.428;2022-08-16T05:28:07;100689.04;;;13.58;34.60
72486;BME280;60509;47.308;-122.428;2022-08-16T05:30:33;100690.65;;;13.19;35.67
72486;BME280;60509;47.308;-122.428;2022-08-16T05:32:58;100697.74;;;11.60;38.42
72486;BME280;60509;47.308;-122.428;2022-08-16T05:35:24;100696.58;;;12.78;37.21
72486;BME280;60509;47.308;-122.428;2022-08-16T05:37:50;100702.27;;;11.85;38.69
72486;BME280;60509;47.308;-122.428;2022-08-16T05:40:16;100706.68;;;11.60;39.12
72486;BME280;60509;47.308;-122.428;2022-08-16T05:42:42;100702.57;;;12.96;38.25
72486;BME280;60509;47.308;-122.428;2022-08-16T05:45:08;100706.96;;;11.98;38.49
72486;BME280;60509;47.308;-122.428;2022-08-16T05:47:33;100708.18;;;12.01;38.30
72486;BME280;60509;47.308;-122.428;2022-08-16T05:49:59;100712.14;;;11.99;38.82
72486;BME280;60509;47.308;-122.428;2022-08-16T05:52:25;100713.54;;;12.06;39.26
72486;BME280;60509;47.308;-122.428;2022-08-16T05:54:51;100711.24;;;12.00;38.82
72486;BME280;60509;47.308;-122.428;2022-08-16T05:57:18;100710.20;;;12.82;38.02
72486;BME280;60509;47.308;-122.428;2022-08-16T05:59:43;100711.59;;;12.44;38.20
72486;BME280;60509;47.308;-122.428;2022-08-16T06:02:08;100715.45;;;11.75;40.07
72486;BME280;60509;47.308;-122.428;2022-08-16T06:04:34;100717.46;;;11.85;39.79
72486;BME280;60509;47.308;-122.428;2022-08-16T06:07:00;100721.42;;;10.89;41.73
72486;BME280;60509;47.308;-122.428;2022-08-16T06:09:25;100721.08;;;10.96;41.84
72486;BME280;60509;47.308;-122.428;2022-08-16T06:11:52;100720.76;;;10.53;42.84
72486;BME280;60509;47.308;-122.428;2022-08-16T06:14:18;100718.39;;;11.95;41.30
72486;BME280;60509;47.308;-122.428;2022-08-16T06:16:43;100720.40;;;10.20;46.12
72486;BME280;60509;47.308;-122.428;2022-08-16T06:19:09;100721.76;;;10.45;45.49
72486;BME280;60509;47.308;-122.428;2022-08-16T06:21:35;100722.10;;;10.43;45.78
72486;BME280;60509;47.308;-122.428;2022-08-16T06:24:00;100722.92;;;11.09;45.55
72486;BME280;60509;47.308;-122.428;2022-08-16T06:26:26;100719.88;;;11.43;44.99
72486;BME280;60509;47.308;-122.428;2022-08-16T06:28:52;100722.77;;;10.98;44.93
72486;BME280;60509;47.308;-122.428;2022-08-16T06:31:18;100724.12;;;10.44;47.04
72486;BME280;60509;47.308;-122.428;2022-08-16T06:33:44;100725.07;;;11.02;46.05
72486;BME280;60509;47.308;-122.428;2022-08-16T06:36:11;100729.63;;;10.75;46.33
72486;BME280;60509;47.308;-122.428;2022-08-16T06:38:36;100728.40;;;11.63;44.68
72486;BME280;60509;47.308;-122.428;2022-08-16T06:41:04;100726.30;;;10.26;45.73
72486;BME280;60509;47.308;-122.428;2022-08-16T06:43:27;100728.08;;;11.18;44.03
72486;BME280;60509;47.308;-122.428;2022-08-16T06:45:53;100730.06;;;10.91;45.60
72486;BME280;60509;47.308;-122.428;2022-08-16T06:48:19;100731.07;;;11.23;44.65
72486;BME280;60509;47.308;-122.428;2022-08-16T06:50:45;100731.77;;;10.90;45.44
72486;BME280;60509;47.308;-122.428;2022-08-16T06:53:10;100735.63;;;10.67;46.55
72486;BME280;60509;47.308;-122.428;2022-08-16T06:55:36;100737.55;;;10.23;48.67
72486;BME280;60509;47.308;-122.428;2022-08-16T06:58:02;100737.08;;;10.37;48.85
72486;BME280;60509;47.308;-122.428;2022-08-16T07:00:28;100741.01;;;10.45;49.54
72486;BME280;60509;47.308;-122.428;2022-08-16T07:02:54;100743.07;;;9.84;50.88
72486;BME280;60509;47.308;-122.428;2022-08-16T07:05:20;100743.46;;;10.26;50.62
72486;BME280;60509;47.308;-122.428;2022-08-16T07:07:47;100742.15;;;10.06;51.00
72486;BME280;60509;47.308;-122.428;2022-08-16T07:10:12;100739.90;;;10.23;50.38
72486;BME280;60509;47.308;-122.428;2022-08-16T07:12:38;100746.72;;;8.91;51.40
72486;BME280;60509;47.308;-122.428;2022-08-16T07:15:04;100745.80;;;9.86;50.98
72486;BME280;60509;47.308;-122.428;2022-08-16T07:17:30;100745.65;;;9.98;51.34
72486;BME280;60509;47.308;-122.428;2022-08-16T07:19:55;100743.57;;;9.83;52.10
72486;BME280;60509;47.308;-122.428;2022-08-16T07:22:22;100742.15;;;9.38;51.95
72486;BME280;60509;47.308;-122.428;2022-08-16T07:24:47;100741.45;;;9.61;51.91
72486;BME280;60509;47.308;-122.428;2022-08-16T07:27:13;100743.76;;;9.64;53.23
72486;BME280;60509;47.308;-122.428;2022-08-16T07:29:39;100744.77;;;9.73;52.35
72486;BME280;60509;47.308;-122.428;2022-08-16T07:32:05;100745.61;;;9.23;52.83
72486;BME280;60509;47.308;-122.428;2022-08-16T07:34:31;100743.73;;;9.44;52.78
72486;BME280;60509;47.308;-122.428;2022-08-16T07:36:57;100742.54;;;9.39;53.05
72486;BME280;60509;47.308;-122.428;2022-08-16T07:39:22;100744.24;;;8.05;55.57
72486;BME280;60509;47.308;-122.428;2022-08-16T07:41:48;100746.09;;;8.49;56.22
72486;BME280;60509;47.308;-122.428;2022-08-16T07:44:14;100751.10;;;9.18;55.17
72486;BME280;60509;47.308;-122.428;2022-08-16T07:46:40;100751.50;;;8.01;56.75
72486;BME280;60509;47.308;-122.428;2022-08-16T07:49:06;100750.29;;;8.76;54.92
72486;BME280;60509;47.308;-122.428;2022-08-16T07:51:33;100751.70;;;8.34;55.59
72486;BME280;60509;47.308;-122.428;2022-08-16T07:53:58;100750.23;;;8.80;53.66
72486;BME280;60509;47.308;-122.428;2022-08-16T07:56:24;100754.25;;;8.13;54.72
72486;BME280;60509;47.308;-122.428;2022-08-16T07:58:50;100752.83;;;8.49;54.21
72486;BME280;60509;47.308;-122.428;2022-08-16T08:01:16;100758.98;;;7.94;56.29
72486;BME280;60509;47.308;-122.428;2022-08-16T08:03:43;100762.30;;;7.47;57.60
72486;BME280;60509;47.308;-122.428;2022-08-16T08:06:08;100760.09;;;7.01;57.60
72486;BME280;60509;47.308;-122.428;2022-08-16T08:08:33;100760.27;;;7.96;55.70
72486;BME280;60509;47.308;-122.428;2022-08-16T08:10:59;100754.48;;;8.89;54.06
72486;BME280;60509;47.308;-122.428;2022-08-16T08:13:25;100749.23;;;8.73;53.97
72486;BME280;60509;47.308;-122.428;2022-08-16T08:15:51;100747.31;;;9.22;53.00
72486;BME280;60509;47.308;-122.428;2022-08-16T08:18:17;100742.40;;;9.16;53.17
72486;BME280;60509;47.308;-122.428;2022-08-16T08:20:43;100742.74;;;8.87;52.73
72486;BME280;60509;47.308;-122.428;2022-08-16T08:23:10;100744.53;;;8.62;52.94
72486;BME280;60509;47.308;-122.428;2022-08-16T08:25:35;100743.77;;;9.24;53.24
72486;BME280;60509;47.308;-122.428;2022-08-16T08:28:01;100748.52;;;8.65;53.09
72486;BME280;60509;47.308;-122.428;2022-08-16T08:30:27;100752.15;;;8.43;53.44
72486;BME280;60509;47.308;-122.428;2022-08-16T08:32:53;100749.72;;;8.69;54.19
72486;BME280;60509;47.308;-122.428;2022-08-16T08:35:19;100743.31;;;8.61;53.77
72486;BME280;60509;47.308;-122.428;2022-08-16T08:37:45;100744.64;;;8.91;53.33
72486;BME280;60509;47.308;-122.428;2022-08-16T08:40:11;100751.59;;;8.62;53.25
72486;BME280;60509;47.308;-122.428;2022-08-16T08:42:37;100756.27;;;8.67;52.99
72486;BME280;60509;47.308;-122.428;2022-08-16T08:45:04;100756.67;;;8.33;53.41
72486;BME280;60509;47.308;-122.428;2022-08-16T08:47:29;100758.89;;;8.71;52.79
72486;BME280;60509;47.308;-122.428;2022-08-16T08:49:55;100763.05;;;8.00;53.18
72486;BME280;60509;47.308;-122.428;2022-08-16T08:52:22;100767.48;;;7.69;54.87
72486;BME280;60509;47.308;-122.428;2022-08-16T08:54:47;100767.48;;;8.40;53.69
72486;BME280;60509;47.308;-122.428;2022-08-16T08:57:13;100767.34;;;8.27;54.25
72486;BME280;60509;47.308;-122.428;2022-08-16T08:59:39;100766.39;;;8.07;55.57
72486;BME280;60509;47.308;-122.428;2022-08-16T09:02:05;100762.03;;;8.13;55.13
72486;BME280;60509;47.308;-122.428;2022-08-16T09:04:31;100764.59;;;7.05;56.15
72486;BME280;60509;47.308;-122.428;2022-08-16T09:06:57;100759.60;;;8.23;54.16
72486;BME280;60509;47.308;-122.428;2022-08-16T09:09:23;100761.20;;;8.59;53.51
72486;BME280;60509;47.308;-122.428;2022-08-16T09:11:51;100762.45;;;8.33;54.12
72486;BME280;60509;47.308;-122.428;2022-08-16T09:14:15;100762.85;;;8.43;54.32
72486;BME280;60509;47.308;-122.428;2022-08-16T09:16:41;100764.16;;;7.76;55.85
72486;BME280;60509;47.308;-122.428;2022-08-16T09:19:07;100763.26;;;8.55;54.19
72486;BME280;60509;47.308;-122.428;2022-08-16T09:21:33;100761.96;;;8.39;53.98
72486;BME280;60509;47.308;-122.428;2022-08-16T09:23:59;100768.11;;;7.62;55.35
72486;BME280;60509;47.308;-122.428;2022-08-16T09:26:25;100765.69;;;8.13;55.79
72486;BME280;60509;47.308;-122.428;2022-08-16T09:28:51;100764.21;;;8.08;56.29
72486;BME280;60509;47.308;-122.428;2022-08-16T09:31:17;100765.85;;;7.86;56.32
72486;BME280;60509;47.308;-122.428;2022-08-16T09:33:44;100764.63;;;6.47;57.42
72486;BME280;60509;47.308;-122.428;2022-08-16T09:36:10;100771.23;;;7.13;56.06
72486;BME280;60509;47.308;-122.428;2022-08-16T09:38:35;100774.08;;;7.98;55.29
72486;BME280;60509;47.308;-122.428;2022-08-16T09:41:02;100778.41;;;6.75;57.40
72486;BME280;60509;47.308;-122.428;2022-08-16T09:43:27;100779.79;;;7.02;56.53
72486;BME280;60509;47.308;-122.428;2022-08-16T09:45:52;100781.76;;;6.78;57.39
72486;BME280;60509;47.308;-122.428;2022-08-16T09:48:18;100780.89;;;7.41;56.39
72486;BME280;60509;47.308;-122.428;2022-08-16T09:50:45;100781.91;;;6.66;57.91
72486;BME280;60509;47.308;-122.428;2022-08-16T09:53:14;100783.91;;;6.82;58.41
72486;BME280;60509;47.308;-122.428;2022-08-16T09:55:36;100784.03;;;6.08;59.47
72486;BME280;60509;47.308;-122.428;2022-08-16T09:58:03;100788.40;;;7.02;57.97
72486;BME280;60509;47.308;-122.428;2022-08-16T10:00:29;100791.34;;;6.58;58.47
72486;BME280;60509;47.308;-122.428;2022-08-16T10:02:54;100793.72;;;7.37;57.40
72486;BME280;60509;47.308;-122.428;2022-08-16T10:05:20;100797.17;;;6.73;58.50
72486;BME280;60509;47.308;-122.428;2022-08-16T10:07:45;100796.59;;;6.32;60.15
72486;BME280;60509;47.308;-122.428;2022-08-16T10:10:10;100798.77;;;6.26;60.84
72486;BME280;60509;47.308;-122.428;2022-08-16T10:12:35;100802.73;;;7.47;58.88
72486;BME280;60509;47.308;-122.428;2022-08-16T10:15:00;100806.05;;;7.38;57.07
72486;BME280;60509;47.308;-122.428;2022-08-16T10:17:26;100811.08;;;7.55;56.76
72486;BME280;60509;47.308;-122.428;2022-08-16T10:19:52;100816.75;;;7.08;57.16
72486;BME280;60509;47.308;-122.428;2022-08-16T10:22:17;100818.57;;;7.27;57.36
72486;BME280;60509;47.308;-122.428;2022-08-16T10:24:42;100821.51;;;6.98;57.18
72486;BME280;60509;47.308;-122.428;2022-08-16T10:27:07;100821.88;;;6.67;58.61
72486;BME280;60509;47.308;-122.428;2022-08-16T10:29:32;100818.62;;;7.17;56.90
72486;BME280;60509;47.308;-122.428;2022-08-16T10:31:58;100819.86;;;6.55;58.26
72486;BME280;60509;47.308;-122.428;2022-08-16T10:34:24;100817.50;;;6.93;55.94
72486;BME280;60509;47.308;-122.428;2022-08-16T10:36:50;100819.95;;;6.17;57.40
72486;BME280;60509;47.308;-122.428;2022-08-16T10:39:15;100819.80;;;7.50;55.98
72486;BME280;60509;47.308;-122.428;2022-08-16T10:41:40;100822.67;;;5.95;58.38
72486;BME280;60509;47.308;-122.428;2022-08-16T10:44:07;100823.38;;;7.15;56.67
72486;BME280;60509;47.308;-122.428;2022-08-16T10:46:32;100823.30;;;6.48;57.43
72486;BME280;60509;47.308;-122.428;2022-08-16T10:48:59;100825.13;;;7.53;54.37
72486;BME280;60509;47.308;-122.428;2022-08-16T10:51:25;100828.07;;;7.59;54.15
72486;BME280;60509;47.308;-122.428;2022-08-16T10:53:51;100827.04;;;7.49;53.76
72486;BME280;60509;47.308;-122.428;2022-08-16T10:56:17;100828.73;;;7.95;53.50
72486;BME280;60509;47.308;-122.428;2022-08-16T10:58:43;100827.24;;;6.28;55.98
72486;BME280;60509;47.308;-122.428;2022-08-16T11:01:09;100829.38;;;7.45;54.46
72486;BME280;60509;47.308;-122.428;2022-08-16T11:03:33;100836.91;;;7.04;54.96
72486;BME280;60509;47.308;-122.428;2022-08-16T11:05:59;100835.20;;;7.51;53.92
72486;BME280;60509;47.308;-122.428;2022-08-16T11:08:24;100832.76;;;7.38;54.50
72486;BME280;60509;47.308;-122.428;2022-08-16T11:10:49;100832.16;;;7.64;53.50
72486;BME280;60509;47.308;-122.428;2022-08-16T11:13:16;100835.37;;;6.18;55.91
72486;BME280;60509;47.308;-122.428;2022-08-16T11:15:39;100834.74;;;6.66;54.81
72486;BME280;60509;47.308;-122.428;2022-08-16T11:18:05;100833.38;;;6.55;55.15
72486;BME280;60509;47.308;-122.428;2022-08-16T11:20:29;100835.59;;;6.49;54.73
72486;BME280;60509;47.308;-122.428;2022-08-16T11:22:54;100836.02;;;6.36;54.91
72486;BME280;60509;47.308;-122.428;2022-08-16T11:25:21;100836.45;;;6.99;53.70
72486;BME280;60509;47.308;-122.428;2022-08-16T11:27:45;100835.89;;;7.01;54.08
72486;BME280;60509;47.308;-122.428;2022-08-16T11:30:13;100836.05;;;6.59;54.76
72486;BME280;60509;47.308;-122.428;2022-08-16T11:32:37;100841.17;;;6.80;55.41
72486;BME280;60509;47.308;-122.428;2022-08-16T11:35:06;100846.37;;;7.33;54.84
72486;BME280;60509;47.308;-122.428;2022-08-16T11:37:28;100845.80;;;7.07;56.31
72486;BME280;60509;47.308;-122.428;2022-08-16T11:39:54;100843.80;;;7.03;57.35
72486;BME280;60509;47.308;-122.428;2022-08-16T11:42:20;100845.58;;;6.37;59.56
72486;BME280;60509;47.308;-122.428;2022-08-16T11:44:46;100845.64;;;6.16;61.08
72486;BME280;60509;47.308;-122.428;2022-08-16T11:47:12;100840.93;;;5.52;61.16
72486;BME280;60509;47.308;-122.428;2022-08-16T11:49:38;100842.46;;;6.37;59.33
72486;BME280;60509;47.308;-122.428;2022-08-16T11:52:04;100844.83;;;6.60;58.96
72486;BME280;60509;47.308;-122.428;2022-08-16T11:54:30;100845.67;;;7.05;59.11
72486;BME280;60509;47.308;-122.428;2022-08-16T11:56:57;100842.62;;;6.33;60.16
72486;BME280;60509;47.308;-122.428;2022-08-16T11:59:22;100843.97;;;6.56;59.08
72486;BME280;60509;47.308;-122.428;2022-08-16T12:01:48;100844.78;;;7.37;57.05
72486;BME280;60509;47.308;-122.428;2022-08-16T12:04:14;100846.86;;;7.32;56.99
72486;BME280;60509;47.308;-122.428;2022-08-16T12:06:40;100845.26;;;7.02;58.03
72486;BME280;60509;47.308;-122.428;2022-08-16T12:09:06;100846.61;;;6.32;58.26
72486;BME280;60509;47.308;-122.428;2022-08-16T12:11:32;100847.31;;;5.40;60.39
72486;BME280;60509;47.308;-122.428;2022-08-16T12:13:57;100845.62;;;6.09;61.79
72486;BME280;60509;47.308;-122.428;2022-08-16T12:16:23;100845.44;;;6.51;59.60